x

Canaveral 20 Nm East Of Cape Canaveral, Fl (41009) Wave Buoy

10:50am - Wed 26th Nov 2014 All times are EST. -5 hours from GMT.

  • Sig Wave height 5.9ft
  • Swell Direction
  • Peak Period 6s
  • Average Period 5s
  • Wind
    22mph, 29mph gusts
  • Sea Temp 78°f
  • Air Temp 64°f
  • Sea Pressure 1017.9mb
  • Canaveral 20 Nm East Of Cape Canaveral, Fl
  • Canaveral 20 Nm East Of Cape Canaveral, Fl

More Historic Weather Station data

Upgrade to MSW Pro to gain access to the past 30 days of data for over 8000 Wavebouys and Weather Stations around the globe.

Join Pro

Comparision Forecast

View Surf forecast
   
Wed 11/26 10:50am 6ft 6s 5s 22 29 mph 1017.9mb 78f 64f
10:20am  -   -   -  20 25 mph 1017.5mb 78f 64f
9:50am 6ft 5s 5s 22 27 mph 1017.2mb 78f 63f
9:20am  -   -   -  22 29 mph 1017.3mb 78f -
8:50am 5ft 4s 5s 31 38 mph 1016.3mb 78f -
8:20am  -   -   -  31 38 mph 1015.2mb 78f -
7:50am 5ft 5s 5s 22 27 mph 1014mb 78f 74f
7:20am  -   -   -  22 25 mph 1013.6mb 78f 74f
6:50am 5ft 5s 5s 25 31 mph 1012.9mb 78f 74f
6:20am  -   -   -  27 31 mph 1012.4mb 78f 74f
4:50am  -   -   -  27 31 mph - 77f 73f
3:50am 4.5ft 9s 5s 27 34 mph 1011.3mb 77f 74f
3:20am  -   -   -  18 22 mph 1012.1mb 77f 77f
2:50am 4.5ft 9s 5s 20 25 mph 1012mb 77f 77f
2:20am  -   -   -  25 29 mph 1011.9mb 77f 77f
1:50am 4.5ft 9s 5s 20 25 mph 1012mb 77f 78f
1:20am  -   -   -  11 16 mph 1012mb 77f 78f
12:50am 5ft 9s 6s 7
mph
1012.5mb 77f 76f
12:20am  -   -   -  7
mph
1012.7mb 77f 74f
Tue 11/25 11:50pm 5ft 9s 5s 7
mph
1013.1mb 77f 74f
11:20pm  -   -   -  7 9 mph 1013.3mb 77f 73f
10:50pm 4.5ft 9s 5s 9
mph
1013.6mb 77f 72f
10:20pm  -   -   -  9 11 mph 1014.2mb 77f 72f
9:50pm 5ft 9s 5s 11 13 mph 1014.2mb 77f 72f
9:20pm  -   -   -  11 16 mph 1014.4mb 77f 72f
8:50pm 5.5ft 6s 5s 16 22 mph 1014.3mb 78f 72f
8:20pm  -   -   -  20 25 mph 1014mb 78f 78f
7:50pm 5.5ft 5s 5s 20 25 mph 1013.5mb 78f 78f
7:20pm  -   -   -  25 29 mph 1013mb 78f 79f
6:50pm 6ft 5s 5s 27 34 mph 1012.2mb 78f 79f
6:20pm  -   -   -  25 31 mph 1012mb 78f 79f
5:50pm 6ft 6s 5s 25 31 mph 1011.9mb 78f 79f
5:20pm  -   -   -  27 34 mph 1011.3mb 78f 79f
4:50pm 6ft 8s 5s 25 29 mph 1011.9mb 78f 79f
4:20pm  -   -   -  27 31 mph 1012mb 78f 79f
3:50pm 5ft 5s 5s 25 29 mph 1012.1mb 78f 79f
3:20pm  -   -   -  25 27 mph 1012.3mb 78f 79f
2:50pm 5.5ft 9s 5s 22 27 mph 1012.2mb 78f 78f
2:20pm  -   -   -  22 27 mph 1012.4mb 78f 78f
1:50pm 5ft 10s 5s 20 25 mph 1013mb 78f 78f
1:20pm  -   -   -  20 22 mph 1013.7mb 78f 78f
12:50pm 5ft 10s 5s 22 29 mph 1014mb 78f 78f
12:20pm  -   -   -  22 25 mph 1014.5mb 78f 78f
11:50am 4.5ft 9s 5s 20 22 mph 1015.4mb 78f 78f
11:20am  -   -   -  16 18 mph 1015.9mb 78f 78f
10:50am 4ft 9s 6s 16 18 mph 1016.6mb 78f 78f
10:20am  -   -   -  11 13 mph 1017mb 78f 77f
9:50am 4ft 10s 7s 7 11 mph 1017.2mb 78f 77f
9:20am  -   -   -  13 20 mph 1017.1mb 78f 75f
8:50am 3.5ft 10s 6s 9 16 mph 1016.7mb 78f 76f
8:20am  -   -   -  7 9 mph 1016.6mb 78f 75f
6:50am 3.5ft 10s 6s 7 9 mph 1016.4mb 78f 74f
6:20am  -   -   -  11 13 mph 1016.1mb 78f 74f
5:50am 3.5ft 9s 6s 13 16 mph 1016.1mb 77f 74f
5:20am  -   -   -  11 13 mph 1016mb 77f 73f
4:50am 4ft 8s 6s 13 18 mph 1016.2mb 78f 74f
4:20am  -   -   -  11 13 mph 1016.1mb 78f 75f
3:50am 4.5ft 9s 6s 7 9 mph 1016.6mb 78f 76f
2:20am  -   -   -  9
mph
1016.1mb 78f 77f
1:50am 4ft 9s 6s 11
mph
1016.6mb 78f 77f
1:20am  -   -   -  9 11 mph 1016.6mb 78f 77f
12:50am 4.5ft 10s 6s 11 13 mph 1016.7mb 78f 77f
12:20am  -   -   -  13 16 mph 1016.9mb 78f 78f
Mon 11/24 11:50pm 4.5ft 10s 5s 13 16 mph 1017.3mb 78f 78f
11:20pm  -   -   -  16 18 mph 1017.2mb 78f 78f
10:50pm 5ft 10s 5s 16 18 mph 1016.8mb 78f 78f
10:20pm  -   -   -  18 20 mph 1016.5mb 78f 78f
9:50pm 4.5ft 9s 5s 18 20 mph 1016mb 78f 79f
9:20pm  -   -   -  18 20 mph 1015.9mb 78f 79f
8:50pm 5ft 9s 6s 18 20 mph 1015.8mb 78f 79f
8:20pm  -   -   -  18 20 mph 1015.8mb 78f 79f
7:50pm 4.5ft 10s 5s 18 20 mph 1015.6mb 78f 79f
7:20pm  -   -   -  18 20 mph 1015.3mb 78f 79f
6:50pm 4.5ft 9s 6s 18 20 mph 1015mb 78f 79f
6:20pm  -   -   -  18 22 mph 1014.6mb 78f 78f
5:50pm 4.5ft 9s 6s 18 20 mph 1014.4mb 78f 78f
5:20pm  -   -   -  18 20 mph 1014.4mb 78f 79f
4:50pm 5.5ft 9s 7s 16 18 mph 1014.3mb 78f 78f
4:20pm  -   -   -  13 16 mph 1014.3mb 78f 78f
3:50pm 4.5ft 10s 7s 13 16 mph 1014.2mb 78f 78f
3:20pm  -   -   -  13 16 mph 1014.2mb 78f 78f
2:50pm 4.5ft 8s 6s 11 13 mph 1014mb 78f 78f
2:20pm  -   -   -  11 13 mph 1013.9mb 78f 78f
1:50pm 4.5ft 9s 7s 11 13 mph 1013.9mb 78f 78f
1:20pm  -   -   -  11 16 mph 1014.2mb 78f 77f
12:50pm 5ft 10s 6s 11 13 mph 1014.6mb 78f 76f
12:20pm  -   -   -  13 16 mph 1015mb 78f 76f
11:50am 4.5ft 10s 6s 16 18 mph 1015.3mb 78f 76f
11:20am  -   -   -  16 20 mph 1015.5mb 78f 76f
10:50am 5ft 9s 6s 18 20 mph 1015.7mb 78f 75f
10:20am  -   -   -  20 22 mph 1015.9mb 78f 75f
9:50am 5ft 10s 6s 20 25 mph 1016mb 78f 75f
9:20am  -   -   -  20 25 mph 1015.8mb 78f 76f
8:50am 5ft 10s 6s 16 20 mph 1015.7mb 78f 76f
8:20am  -   -   -  18 22 mph 1015.4mb 78f 77f
7:50am 5ft 9s 6s 18 22 mph 1015.2mb 78f 77f
7:20am  -   -   -  16 20 mph 1014.9mb 78f 77f
6:50am 5ft 9s 6s 18 20 mph 1014.8mb 78f 77f
6:20am  -   -   -  16 18 mph 1014.5mb 77f 77f
5:50am 5.5ft 8s 6s 16 18 mph 1014.1mb 77f 77f
5:20am  -   -   -  16 20 mph 1013.9mb 77f 77f
4:50am 6ft 9s 6s 16 18 mph 1013.7mb 77f 77f
4:20am  -   -   -  16 18 mph 1013.6mb 77f 77f
3:50am 5ft 10s 5s 18 20 mph 1013.5mb 77f 78f
3:20am  -   -   -  18 20 mph 1013.5mb 77f 78f
2:50am 6ft 10s 6s 16 20 mph 1013.4mb 77f 78f
2:20am  -   -   -  16 18 mph 1013.7mb 77f 77f
1:50am 6ft 10s 6s 16 18 mph 1013.9mb 77f 78f
1:20am  -   -   -  18 20 mph 1013.5mb 77f 78f
12:50am 5.5ft 9s 6s 18 20 mph 1013.6mb 77f 77f
12:20am  -   -   -  18 20 mph 1014mb 77f 77f
Sun 11/23 11:50pm 6ft 9s 6s 20 22 mph 1014.3mb 77f 77f
10:50pm 6ft 9s 5s 18 20 mph 1014.6mb 77f 78f
10:20pm  -   -   -  20 25 mph 1014.4mb 77f 78f
9:50pm 6.5ft 10s 6s 20 25 mph 1014.1mb 77f 78f
9:20pm  -   -   -  20 25 mph 1014.1mb 77f 78f
8:50pm 7ft 10s 6s 20 27 mph 1013.9mb 77f 78f
8:20pm  -   -   -  20 25 mph 1013.6mb 77f 78f
7:50pm 7ft 10s 6s 20 22 mph 1013.6mb 77f 78f
7:20pm  -   -   -  20 22 mph 1013.4mb 77f 78f
6:50pm 7ft 9s 6s 22 25 mph 1013.1mb 77f 78f
6:20pm  -   -   -  20 27 mph 1013.1mb 77f 78f
5:50pm 7ft 10s 6s 20 22 mph 1012.9mb 77f 78f
5:20pm  -   -   -  18 22 mph 1012.8mb 76f 78f
4:50pm 7ft 10s 6s 22 25 mph 1012.7mb 76f 78f
4:20pm  -   -   -  20 25 mph 1012.8mb 76f 78f
3:50pm 7ft 10s 6s 20 25 mph 1012.6mb 76f 78f
3:20pm  -   -   -  22 27 mph 1012.6mb 76f 78f
2:50pm 8ft 10s 6s 22 27 mph 1012.7mb 76f 78f
2:20pm  -   -   -  22 27 mph 1013mb 76f 78f
1:50pm 8ft 10s 6s 22 27 mph 1013.4mb 76f 78f
1:20pm  -   -   -  20 22 mph 1014.2mb 76f 78f
12:50pm 8ft 9s 6s 18 22 mph 1014.7mb 75f 77f
12:20pm  -   -   -  20 25 mph 1015.3mb 75f 77f
11:50am 9ft 8s 6s 22 27 mph 1015.7mb 75f 77f
11:20am  -   -   -  22 27 mph 1016.4mb 76f 77f
10:50am 8.5ft 9s  -  22 27 mph 1016.6mb 76f 77f
10:20am  -   -   -  25 29 mph 1016.5mb 76f 77f
9:50am 9.5ft 9s 6s 27 31 mph 1016.6mb 76f 77f
9:20am  -   -   -  27 31 mph 1016.4mb 76f 77f
8:50am 9.5ft 9s 6s 27 34 mph 1016.5mb 76f 77f
8:20am  -   -   -  27 31 mph 1016.5mb 76f 77f
7:50am 9ft 9s 6s 27 34 mph 1016.2mb 76f 77f
7:20am  -   -   -  27 34 mph 1016.4mb 76f 77f
6:50am 9ft 9s 6s 29 34 mph 1015.9mb 77f 77f
6:20am  -   -   -  29 36 mph 1016mb 77f 77f
5:50am 9.5ft 9s 6s 25 29 mph 1016.1mb 77f 76f
5:20am  -   -   -  25 29 mph 1016.2mb 77f 75f
4:50am 10ft 9s 6s 29 36 mph 1015.5mb 77f 74f
4:20am  -   -   -  29 34 mph 1016.4mb 77f 77f
3:50am 11ft 10s 6s 27 36 mph 1016.8mb 77f 76f
3:20am  -   -   -  29 34 mph 1017mb 77f 76f
2:50am 10ft 9s 6s 27 34 mph 1017.3mb 77f 76f
2:20am  -   -   -  29 36 mph 1017.7mb 77f 76f
1:50am 10ft 9s 6s 27 34 mph 1018.2mb 78f 76f
1:20am  -   -   -  25 31 mph 1018.6mb 78f 76f
12:50am 11.5ft 9s 7s 27 31 mph 1018.9mb 78f 76f
12:20am  -   -   -  27 34 mph 1019.2mb 78f 76f
Sat 11/22 11:50pm 10.5ft 9s 7s 27 34 mph 1019.6mb 78f 76f
11:20pm  -   -   -  27 34 mph 1020mb 78f 76f
10:50pm 11ft 9s 6s 27 31 mph 1020.4mb 78f 76f
10:20pm  -   -   -  27 34 mph 1020.6mb 78f 76f
9:50pm 10ft 9s 6s 29 34 mph 1020.5mb 78f 75f
9:20pm  -   -   -  29 34 mph 1020.9mb 78f 75f
8:50pm 10ft 8s 6s 29 34 mph 1020.8mb 78f 75f
8:20pm  -   -   -  29 34 mph 1020.8mb 78f 75f
7:50pm 8.5ft 9s 6s 29 34 mph 1020.6mb 78f 75f
7:20pm  -   -   -  29 34 mph 1020.6mb 78f 75f
6:50pm 9ft 8s 6s 29 36 mph 1020.7mb 78f 75f
6:20pm  -   -   -  29 36 mph 1020.6mb 78f 75f
5:50pm 9.5ft 8s 6s 29 34 mph 1020.8mb 78f 75f
5:20pm  -   -   -  29 36 mph 1020.7mb 77f 75f
4:50pm 10ft 8s 6s 29 36 mph 1020.7mb 77f 74f